createdAt,value
2022-11-21T00:02:25.440Z,14.30
2022-11-21T00:04:59.120Z,14.97
2022-11-21T00:07:31.816Z,13.47
2022-11-21T00:10:04.778Z,14.17
2022-11-21T00:12:37.988Z,13.07
2022-11-21T00:15:12.379Z,14.80
2022-11-21T00:17:45.080Z,14.57
2022-11-21T00:20:18.181Z,13.67
2022-11-21T00:22:51.069Z,13.70
2022-11-21T00:25:26.596Z,13.87
2022-11-21T00:27:59.276Z,13.77
2022-11-21T00:30:33.388Z,13.47
2022-11-21T00:33:06.907Z,13.77
2022-11-21T00:35:39.666Z,13.43
2022-11-21T00:38:12.372Z,13.43
2022-11-21T00:40:45.161Z,14.70
2022-11-21T00:43:20.111Z,14.03
2022-11-21T00:45:54.246Z,13.57
2022-11-21T00:48:26.880Z,14.40
2022-11-21T00:51:00.444Z,14.50
2022-11-21T00:53:33.158Z,14.30
2022-11-21T00:56:06.272Z,14.30
2022-11-21T00:58:38.889Z,14.30
2022-11-21T01:01:14.121Z,13.90
2022-11-21T01:03:49.384Z,12.97
2022-11-21T01:06:22.116Z,13.97
2022-11-21T01:08:54.851Z,13.13
2022-11-21T01:11:27.940Z,14.40
2022-11-21T01:14:00.745Z,13.77
2022-11-21T01:16:35.583Z,14.47
2022-11-21T01:19:08.255Z,13.47
2022-11-21T01:21:41.048Z,14.00
2022-11-21T01:24:13.868Z,13.30
2022-11-21T01:26:46.745Z,14.33
2022-11-21T01:29:19.564Z,12.77
2022-11-21T01:31:53.674Z,14.37
2022-11-21T01:34:28.599Z,14.30
2022-11-21T01:37:02.360Z,13.97
2022-11-21T01:39:36.588Z,14.50
2022-11-21T01:42:10.512Z,14.07
2022-11-21T01:44:48.321Z,15.80
2022-11-21T01:47:23.630Z,15.43
2022-11-21T01:49:56.744Z,14.27
2022-11-21T01:52:32.149Z,15.10
2022-11-21T01:55:06.811Z,14.37
2022-11-21T01:57:41.034Z,14.07
2022-11-21T02:00:16.586Z,15.23
2022-11-21T02:02:52.482Z,14.60
2022-11-21T02:05:26.616Z,15.53
2022-11-21T02:08:03.424Z,15.93
2022-11-21T02:10:39.380Z,15.03
2022-11-21T02:13:12.803Z,14.23
2022-11-21T02:15:52.686Z,14.93
2022-11-21T02:18:26.873Z,15.77
2022-11-21T02:21:05.030Z,15.13
2022-11-21T02:23:41.798Z,15.67
2022-11-21T02:26:15.908Z,15.50
2022-11-21T02:28:48.719Z,14.97
2022-11-21T02:31:21.498Z,14.60
2022-11-21T02:33:54.268Z,15.47
2022-11-21T02:36:37.159Z,15.40
2022-11-21T02:39:13.705Z,14.60
2022-11-21T02:41:52.232Z,15.53
2022-11-21T02:44:27.697Z,16.20
2022-11-21T02:47:02.460Z,16.90
2022-11-21T02:49:39.305Z,15.93
2022-11-21T02:52:11.962Z,15.10
2022-11-21T02:54:44.644Z,14.70
2022-11-21T02:57:18.740Z,15.13
2022-11-21T02:59:51.563Z,16.07
2022-11-21T03:02:26.635Z,15.87
2022-11-21T03:04:59.473Z,16.40
2022-11-21T03:07:33.492Z,16.20
2022-11-21T03:10:07.157Z,16.03
2022-11-21T03:12:42.215Z,16.20
2022-11-21T03:15:15.746Z,15.10
2022-11-21T03:17:49.607Z,16.20
2022-11-21T03:20:22.384Z,16.13
2022-11-21T03:22:55.107Z,15.73
2022-11-21T03:25:27.907Z,16.83
2022-11-21T03:28:02.102Z,16.10
2022-11-21T03:30:34.846Z,16.50
2022-11-21T03:33:07.528Z,16.33
2022-11-21T03:35:42.330Z,17.33
2022-11-21T03:38:15.082Z,15.60
2022-11-21T03:40:47.942Z,15.70
2022-11-21T03:43:22.060Z,16.67
2022-11-21T03:45:57.420Z,16.43
2022-11-21T03:48:30.202Z,15.33
2022-11-21T03:51:03.120Z,16.13
2022-11-21T03:53:35.819Z,15.87
2022-11-21T03:56:08.490Z,17.83
2022-11-21T03:58:42.414Z,16.27
2022-11-21T04:01:15.685Z,15.27
2022-11-21T04:03:48.459Z,15.70
2022-11-21T04:06:22.714Z,16.50
2022-11-21T04:08:56.733Z,17.53
2022-11-21T04:11:29.456Z,16.70
2022-11-21T04:14:03.685Z,15.40
2022-11-21T04:16:36.718Z,15.90
2022-11-21T04:19:09.426Z,16.53
2022-11-21T04:21:45.144Z,16.70
2022-11-21T04:24:17.790Z,17.30
2022-11-21T04:26:50.705Z,17.47
2022-11-21T04:29:24.845Z,18.53
2022-11-21T04:31:58.278Z,17.83
2022-11-21T04:34:31.887Z,16.40
2022-11-21T04:37:08.891Z,17.10
2022-11-21T04:39:44.225Z,16.33
2022-11-21T04:42:17.020Z,16.57
2022-11-21T04:44:51.126Z,15.73
2022-11-21T04:47:23.914Z,15.87
2022-11-21T04:49:56.667Z,17.27
2022-11-21T04:52:29.928Z,16.57
2022-11-21T04:55:03.143Z,16.07
2022-11-21T04:57:36.208Z,15.20
2022-11-21T05:00:11.322Z,15.83
2022-11-21T05:02:48.246Z,16.37
2022-11-21T05:05:21.213Z,15.80
2022-11-21T05:07:56.313Z,16.23
2022-11-21T05:10:29.258Z,16.30
2022-11-21T05:13:20.479Z,17.03
2022-11-21T05:15:58.693Z,16.40
2022-11-21T05:18:31.720Z,17.83
2022-11-21T05:21:04.586Z,16.83
2022-11-21T05:23:37.572Z,15.73
2022-11-21T05:26:10.330Z,17.13
2022-11-21T05:28:43.103Z,17.60
2022-11-21T05:31:18.575Z,17.17
2022-11-21T05:33:52.606Z,17.67
2022-11-21T05:36:25.411Z,17.70
2022-11-21T05:39:00.551Z,18.20
2022-11-21T05:41:33.328Z,17.30
2022-11-21T05:44:05.280Z,17.43
2022-11-21T05:46:39.553Z,17.00
2022-11-21T05:49:12.486Z,15.77
2022-11-21T05:51:45.296Z,18.63
2022-11-21T05:54:18.069Z,16.57
2022-11-21T05:56:50.741Z,15.80
2022-11-21T05:59:26.505Z,16.17
2022-11-21T06:02:18.260Z,16.40
2022-11-21T06:04:51.163Z,17.47
2022-11-21T06:07:24.017Z,17.63
2022-11-21T06:09:59.658Z,17.07
2022-11-21T06:12:34.398Z,17.70
2022-11-21T06:15:08.186Z,17.30
2022-11-21T06:17:44.938Z,16.80
2022-11-21T06:20:17.835Z,18.50
2022-11-21T06:22:53.356Z,19.13
2022-11-21T06:25:26.242Z,15.93
2022-11-21T06:28:02.753Z,17.30
2022-11-21T06:30:35.520Z,17.00
2022-11-21T06:33:09.902Z,17.43
2022-11-21T06:35:42.605Z,17.77
2022-11-21T06:38:18.696Z,17.70
2022-11-21T06:40:51.418Z,15.53
2022-11-21T06:43:26.195Z,17.53
2022-11-21T06:45:59.557Z,17.63
2022-11-21T06:48:33.971Z,16.93
2022-11-21T06:51:12.735Z,17.40
2022-11-21T06:53:45.749Z,18.77
2022-11-21T06:56:18.633Z,18.77
2022-11-21T06:58:51.506Z,20.00
2022-11-21T07:01:24.844Z,20.50
2022-11-21T07:03:59.021Z,19.83
2022-11-21T07:06:31.970Z,18.60
2022-11-21T07:09:31.460Z,19.53
2022-11-21T07:12:20.928Z,18.80
2022-11-21T07:14:52.627Z,19.07
2022-11-21T07:17:25.318Z,20.10
2022-11-21T07:19:59.494Z,19.27
2022-11-21T07:22:32.277Z,19.80
2022-11-21T07:25:05.453Z,20.17
2022-11-21T07:27:42.139Z,21.23
2022-11-21T07:30:15.581Z,22.73
2022-11-21T07:32:57.771Z,21.67
2022-11-21T07:35:36.562Z,20.43
2022-11-21T07:38:09.356Z,21.77
2022-11-21T07:40:44.703Z,21.53
2022-11-21T07:43:17.711Z,20.97
2022-11-21T07:45:50.513Z,16.70
2022-11-21T07:48:23.523Z,21.07
2022-11-21T07:50:57.673Z,21.60
2022-11-21T07:53:30.619Z,21.53
2022-11-21T07:56:04.765Z,19.30
2022-11-21T07:58:37.758Z,19.90
2022-11-21T08:01:10.559Z,20.73
2022-11-21T08:03:45.502Z,19.57
2022-11-21T08:06:20.377Z,19.77
2022-11-21T08:08:54.014Z,19.23
2022-11-21T08:11:26.937Z,20.10
2022-11-21T08:14:00.519Z,19.77
2022-11-21T08:16:33.830Z,15.93
2022-11-21T08:19:06.697Z,16.13
2022-11-21T08:21:41.037Z,18.20
2022-11-21T08:24:14.753Z,19.23
2022-11-21T08:26:49.808Z,18.63
2022-11-21T08:29:22.654Z,18.30
2022-11-21T08:31:55.607Z,18.83
2022-11-21T08:38:36.996Z,17.47
2022-11-21T08:41:30.620Z,14.83
2022-11-21T08:44:17.527Z,14.70
2022-11-21T08:46:59.319Z,17.53
2022-11-21T08:49:37.334Z,18.70
2022-11-21T08:52:10.933Z,20.67
2022-11-21T08:54:45.969Z,19.80
2022-11-21T08:57:23.322Z,19.53
2022-11-21T09:00:03.385Z,19.67
2022-11-21T09:02:36.898Z,17.80
2022-11-21T09:05:13.162Z,17.50
2022-11-21T09:07:49.479Z,16.07
2022-11-21T09:10:27.080Z,16.90
2022-11-21T09:13:00.145Z,14.83
2022-11-21T09:15:50.658Z,15.70
2022-11-21T09:18:26.544Z,17.03
2022-11-21T09:20:59.522Z,16.80
2022-11-21T09:23:32.525Z,17.23
2022-11-21T09:26:11.914Z,13.93
2022-11-21T09:28:47.353Z,13.80
2022-11-21T09:31:20.283Z,13.43
2022-11-21T09:33:55.659Z,15.00
2022-11-21T09:36:29.294Z,12.47
2022-11-21T09:39:02.249Z,11.10
2022-11-21T09:41:53.841Z,12.17
2022-11-21T09:44:47.264Z,11.90
2022-11-21T09:47:22.949Z,12.93
2022-11-21T09:49:59.248Z,11.77
2022-11-21T09:52:40.011Z,13.10
2022-11-21T09:55:18.417Z,13.63
2022-11-21T09:57:52.704Z,13.60
2022-11-21T10:00:26.525Z,12.00
2022-11-21T10:03:01.290Z,13.17
2022-11-21T10:05:36.432Z,17.70
2022-11-21T10:08:19.124Z,22.53
2022-11-21T10:10:55.145Z,14.40
2022-11-21T10:13:44.136Z,11.57
2022-11-21T10:16:21.341Z,12.37
2022-11-21T10:19:09.769Z,11.43
2022-11-21T10:21:58.588Z,11.83
2022-11-21T10:24:43.153Z,12.77
2022-11-21T10:27:18.348Z,14.17
2022-11-21T10:29:55.028Z,9.67
2022-11-21T10:32:29.278Z,10.77
2022-11-21T10:35:13.875Z,10.20
2022-11-21T10:37:49.554Z,10.23
2022-11-21T10:40:32.570Z,8.13
2022-11-21T10:43:24.285Z,8.77
2022-11-21T10:45:59.301Z,9.13
2022-11-21T10:48:33.125Z,9.80
2022-11-21T10:51:19.829Z,9.93
2022-11-21T10:54:22.567Z,8.50
2022-11-21T10:56:58.663Z,10.43
2022-11-21T10:59:33.356Z,10.60
2022-11-21T11:02:21.149Z,10.03
2022-11-21T11:05:18.550Z,9.43
2022-11-21T11:08:00.653Z,10.00
2022-11-21T11:10:34.334Z,9.53
2022-11-21T11:13:45.803Z,11.07
2022-11-21T11:16:22.700Z,9.07
2022-11-21T11:19:01.907Z,9.33
2022-11-21T11:22:03.514Z,9.30
2022-11-21T11:25:27.599Z,9.23
2022-11-21T11:28:19.718Z,9.50
2022-11-21T11:31:15.883Z,9.73
2022-11-21T11:37:23.304Z,11.90
2022-11-21T11:40:10.027Z,9.40
2022-11-21T11:43:22.081Z,19.63
2022-11-21T11:46:34.117Z,9.60
2022-11-21T11:49:21.706Z,10.07
2022-11-21T11:52:09.179Z,13.03
2022-11-21T11:54:49.607Z,19.03
2022-11-21T11:57:23.135Z,9.67
2022-11-21T12:00:00.257Z,11.87
2022-11-21T12:02:40.467Z,12.40
2022-11-21T12:05:29.558Z,12.60
2022-11-21T12:11:40.525Z,12.47
2022-11-21T12:14:38.695Z,12.77
2022-11-21T12:17:33.692Z,14.00
2022-11-21T12:21:00.219Z,14.23
2022-11-21T12:23:37.743Z,14.37
2022-11-21T12:30:05.315Z,10.97
2022-11-21T12:32:51.168Z,13.50
2022-11-21T12:35:41.116Z,11.87
2022-11-21T12:38:19.162Z,13.50
2022-11-21T12:40:59.164Z,14.30
2022-11-21T12:43:35.133Z,14.37
2022-11-21T12:46:15.778Z,14.67
2022-11-21T12:49:11.298Z,16.80
2022-11-21T12:52:23.760Z,15.50
2022-11-21T12:55:02.568Z,15.33
2022-11-21T12:57:39.767Z,16.33
2022-11-21T13:00:16.093Z,14.23
2022-11-21T13:02:57.323Z,13.30
2022-11-21T13:05:31.902Z,18.10
2022-11-21T13:08:05.943Z,16.83
2022-11-21T13:10:39.718Z,14.33
2022-11-21T13:13:19.009Z,13.40
2022-11-21T13:15:56.143Z,12.43
2022-11-21T13:18:32.512Z,12.07
2022-11-21T13:21:05.294Z,13.53
2022-11-21T13:23:39.022Z,14.47
2022-11-21T13:26:38.598Z,16.37
2022-11-21T13:29:12.133Z,14.77
2022-11-21T13:31:44.895Z,16.03
2022-11-21T13:34:48.074Z,17.03
2022-11-21T13:37:36.044Z,16.97
2022-11-21T13:40:24.266Z,18.27
2022-11-21T13:43:32.733Z,13.03
2022-11-21T13:46:05.877Z,13.07
2022-11-21T13:49:00.595Z,12.27
2022-11-21T13:51:48.396Z,15.10
2022-11-21T13:54:39.743Z,15.87
2022-11-21T13:57:19.660Z,13.17
2022-11-21T14:00:05.390Z,14.93
2022-11-21T14:03:19.950Z,13.70
2022-11-21T14:06:03.262Z,12.27
2022-11-21T14:08:36.492Z,11.80
2022-11-21T14:11:20.902Z,13.53
2022-11-21T14:13:53.668Z,13.33
2022-11-21T14:16:29.426Z,11.77
2022-11-21T14:19:02.253Z,12.27
2022-11-21T14:21:36.420Z,12.13
2022-11-21T14:24:14.664Z,12.47
2022-11-21T14:26:48.842Z,13.60
2022-11-21T14:29:26.817Z,13.23
2022-11-21T14:31:59.838Z,11.70
2022-11-21T14:34:33.847Z,11.90
2022-11-21T14:37:08.109Z,12.20
2022-11-21T14:39:51.217Z,12.13
2022-11-21T14:42:35.396Z,12.43
2022-11-21T14:45:09.487Z,13.00
2022-11-21T14:47:47.191Z,14.20
2022-11-21T14:50:26.116Z,20.47
2022-11-21T14:53:02.910Z,14.03
2022-11-21T14:55:35.763Z,12.50
2022-11-21T14:58:10.293Z,15.17
2022-11-21T15:01:04.182Z,15.23
2022-11-21T15:03:40.303Z,16.13
2022-11-21T15:06:13.594Z,15.13
2022-11-21T15:11:58.918Z,15.27
2022-11-21T15:14:34.402Z,15.30
2022-11-21T15:17:09.360Z,15.30
2022-11-21T15:19:42.769Z,14.20
2022-11-21T15:22:23.270Z,14.57
2022-11-21T15:25:08.516Z,15.60
2022-11-21T15:27:43.136Z,17.13
2022-11-21T15:30:26.359Z,25.73
2022-11-21T15:33:02.794Z,20.90
2022-11-21T15:35:49.148Z,18.50
2022-11-21T15:38:26.752Z,19.60
2022-11-21T15:41:04.115Z,16.53
2022-11-21T15:43:40.592Z,16.50
2022-11-21T15:46:15.249Z,15.43
2022-11-21T15:48:48.910Z,15.50
2022-11-21T15:51:44.088Z,14.93
2022-11-21T15:54:18.565Z,15.20
2022-11-21T15:56:51.756Z,14.73
2022-11-21T15:59:26.375Z,14.63
2022-11-21T16:01:59.362Z,15.00
2022-11-21T16:04:34.104Z,13.90
2022-11-21T16:07:08.158Z,13.97
2022-11-21T16:09:43.111Z,14.27
2022-11-21T16:12:15.955Z,15.43
2022-11-21T16:14:50.180Z,15.47
2022-11-21T16:17:22.923Z,16.33
2022-11-21T16:19:55.753Z,18.37
2022-11-21T16:22:32.400Z,16.57
2022-11-21T16:25:07.880Z,19.43
2022-11-21T16:27:40.694Z,17.53
2022-11-21T16:30:15.638Z,18.13
2022-11-21T16:32:50.672Z,16.93
2022-11-21T16:35:23.716Z,15.87
2022-11-21T16:37:56.498Z,15.70
2022-11-21T16:40:29.345Z,15.77
2022-11-21T16:43:08.924Z,16.20
2022-11-21T16:45:50.985Z,15.00
2022-11-21T16:48:24.669Z,14.70
2022-11-21T16:50:57.493Z,14.30
2022-11-21T16:53:31.468Z,13.70
2022-11-21T16:56:04.294Z,15.43
2022-11-21T16:58:38.412Z,15.33
2022-11-21T17:01:14.653Z,15.57
2022-11-21T17:03:49.663Z,15.30
2022-11-21T17:06:23.486Z,16.57
2022-11-21T17:08:56.491Z,15.60
2022-11-21T17:11:32.185Z,15.67
2022-11-21T17:14:06.159Z,14.63
2022-11-21T17:16:44.977Z,15.90
2022-11-21T17:19:17.843Z,16.00
2022-11-21T17:21:52.721Z,19.80
2022-11-21T17:24:25.405Z,17.37
2022-11-21T17:27:00.531Z,16.87
2022-11-21T17:29:34.515Z,15.77
2022-11-21T17:32:08.832Z,15.97
2022-11-21T17:34:41.657Z,18.27
2022-11-21T17:37:14.940Z,18.33
2022-11-21T17:39:48.153Z,21.00
2022-11-21T17:42:21.084Z,23.03
2022-11-21T17:44:53.887Z,20.90
2022-11-21T17:47:33.577Z,19.10
2022-11-21T17:50:06.771Z,18.03
2022-11-21T17:52:39.781Z,18.33
2022-11-21T17:55:12.852Z,17.30
2022-11-21T17:57:46.993Z,17.43
2022-11-21T18:00:19.914Z,16.87
2022-11-21T18:02:55.173Z,16.73
2022-11-21T18:05:39.943Z,17.83
2022-11-21T18:08:12.647Z,16.30
2022-11-21T18:10:45.369Z,16.73
2022-11-21T18:13:18.335Z,18.03
2022-11-21T18:15:51.392Z,17.33
2022-11-21T18:18:25.583Z,16.53
2022-11-21T18:21:02.900Z,16.50
2022-11-21T18:23:36.383Z,16.93
2022-11-21T18:26:13.163Z,16.90
2022-11-21T18:28:46.939Z,15.73
2022-11-21T18:31:20.414Z,18.13
2022-11-21T18:33:56.712Z,32.63
2022-11-21T18:36:31.360Z,32.27
2022-11-21T18:39:10.639Z,19.47
2022-11-21T18:41:47.135Z,17.43
2022-11-21T18:44:22.568Z,18.87
2022-11-21T18:46:55.630Z,17.90
2022-11-21T18:49:30.027Z,18.50
2022-11-21T18:52:02.856Z,16.87
2022-11-21T18:54:35.579Z,18.00
2022-11-21T18:57:08.672Z,17.03
2022-11-21T18:59:41.495Z,17.67
2022-11-21T19:02:14.385Z,18.83
2022-11-21T19:04:50.939Z,18.43
2022-11-21T19:07:23.817Z,18.63
2022-11-21T19:10:09.519Z,19.37
2022-11-21T19:12:49.630Z,18.83
2022-11-21T19:15:22.460Z,19.77
2022-11-21T19:17:57.329Z,19.80
2022-11-21T19:20:32.021Z,20.27
2022-11-21T19:23:04.886Z,17.80
2022-11-21T19:25:37.701Z,19.00
2022-11-21T19:28:10.343Z,18.83
2022-11-21T19:30:43.247Z,17.67
2022-11-21T19:33:18.980Z,18.60
2022-11-21T19:35:54.348Z,17.67
2022-11-21T19:38:27.103Z,17.53
2022-11-21T19:41:16.802Z,17.27
2022-11-21T19:43:50.160Z,18.53
2022-11-21T19:46:23.468Z,17.90
2022-11-21T19:48:59.205Z,17.70
2022-11-21T19:51:33.888Z,21.20
2022-11-21T19:54:07.200Z,20.60
2022-11-21T19:56:42.825Z,17.87
2022-11-21T19:59:15.692Z,17.97
2022-11-21T20:01:53.085Z,28.53
2022-11-21T20:04:26.391Z,22.17
2022-11-21T20:07:07.745Z,20.70
2022-11-21T20:09:41.105Z,18.10
2022-11-21T20:12:14.400Z,18.07
2022-11-21T20:14:47.144Z,18.00
2022-11-21T20:17:20.486Z,16.53
2022-11-21T20:19:53.778Z,16.50
2022-11-21T20:22:28.004Z,15.57
2022-11-21T20:25:00.827Z,15.00
2022-11-21T20:27:33.706Z,14.30
2022-11-21T20:30:07.260Z,14.00
2022-11-21T20:32:41.003Z,14.53
2022-11-21T20:35:13.789Z,14.67
2022-11-21T20:37:47.955Z,14.10
2022-11-21T20:40:25.076Z,12.87
2022-11-21T20:42:57.932Z,14.47
2022-11-21T20:48:23.705Z,13.47
2022-11-21T20:53:56.132Z,13.57
2022-11-21T20:56:33.278Z,13.13
2022-11-21T20:59:06.162Z,14.23
2022-11-21T21:01:39.121Z,13.47
2022-11-21T21:04:14.697Z,11.63
2022-11-21T21:06:47.511Z,12.57
2022-11-21T21:09:21.719Z,13.80
2022-11-21T21:11:56.115Z,13.07
2022-11-21T21:14:28.849Z,13.40
2022-11-21T21:17:01.647Z,19.27
2022-11-21T21:19:34.415Z,14.13
2022-11-21T21:22:09.009Z,13.40
2022-11-21T21:24:43.198Z,13.90
2022-11-21T21:27:15.910Z,13.37
2022-11-21T21:29:48.759Z,12.93
2022-11-21T21:32:21.440Z,11.80
2022-11-21T21:34:54.275Z,13.27
2022-11-21T21:37:27.014Z,12.73
2022-11-21T21:40:01.199Z,13.53
2022-11-21T21:42:33.956Z,13.00
2022-11-21T21:45:06.936Z,12.93
2022-11-21T21:47:39.607Z,13.27
2022-11-21T21:50:16.076Z,12.30
2022-11-21T21:52:48.958Z,14.30
2022-11-21T21:55:23.121Z,12.87
2022-11-21T21:57:56.914Z,12.83
2022-11-21T22:00:29.674Z,12.70
2022-11-21T22:03:02.894Z,12.77
2022-11-21T22:05:35.574Z,12.60
2022-11-21T22:08:10.301Z,13.77
2022-11-21T22:10:46.847Z,13.37
2022-11-21T22:13:19.826Z,13.37
2022-11-21T22:15:55.758Z,13.77
2022-11-21T22:18:28.863Z,12.93
2022-11-21T22:21:01.963Z,13.53
2022-11-21T22:23:35.066Z,13.70
2022-11-21T22:26:10.385Z,14.63
2022-11-21T22:28:43.951Z,14.93
2022-11-21T22:31:16.845Z,14.13
2022-11-21T22:33:49.645Z,14.60
2022-11-21T22:36:22.512Z,13.47
2022-11-21T22:38:57.575Z,13.90
2022-11-21T22:41:34.236Z,14.80
2022-11-21T22:44:09.497Z,15.07
2022-11-21T22:46:42.151Z,13.63
2022-11-21T22:49:22.448Z,14.50
2022-11-21T22:51:55.415Z,14.37
2022-11-21T22:54:28.428Z,15.00
2022-11-21T22:57:02.949Z,14.50
2022-11-21T22:59:35.734Z,14.07
2022-11-21T23:02:08.677Z,16.23
2022-11-21T23:04:41.568Z,13.33
2022-11-21T23:07:15.638Z,14.33
2022-11-21T23:09:48.250Z,13.67
2022-11-21T23:12:22.351Z,14.43
2022-11-21T23:14:55.054Z,13.00
2022-11-21T23:17:33.998Z,14.23
2022-11-21T23:20:07.167Z,13.90
2022-11-21T23:22:40.006Z,13.83
2022-11-21T23:25:13.024Z,13.80
2022-11-21T23:27:47.137Z,14.10
2022-11-21T23:30:19.849Z,13.63
2022-11-21T23:32:52.625Z,12.37
2022-11-21T23:35:25.344Z,12.70
2022-11-21T23:37:58.095Z,13.03
2022-11-21T23:40:30.822Z,13.07
2022-11-21T23:43:04.896Z,13.43
2022-11-21T23:45:37.849Z,12.53
2022-11-21T23:48:10.687Z,12.67
2022-11-21T23:50:43.511Z,12.20
2022-11-21T23:53:16.307Z,12.87
2022-11-21T23:55:49.402Z,12.77
2022-11-21T23:58:23.518Z,12.67
